Amado Nervo National Airport

Airport
ICAO code: 
MMEP
IATA Code: 
TPQ
Summary
ICAO Region: 
CARSAM
Territory: 
Location: 
Tepic, Nayarit
Serving: 
Tepic
Elevation: 
3020 ft
Coordinates: 
Aerial View: 
21° 25' 10.031" N, 104° 50' 33.292" W
Metar
Observation
MMEP 041944Z 29008KT 12SM SCT250 29/17 A3004 RMK 8/008 ISOL CU
Station
Tepic, Nay.
Date/Time
2021-12-04 19:44:00
Wind direction
290°
Wind speed
08 kts
Lowest cloud amount
scattered clouds
Temperature
29°C
Dew point
17°C
Humidity
48%
Weather condition
n/a

Amado Nervo national Airport or Tepic Airport is an international airport located at Tepic and the main airport in the Mexican state of Nayarit.

Climatology

Humid subtropical climate (Köppen climate classification Cwa)

Runways

Designator Length Width Surface Rops
2/20 2300 45 ASP No/No
Airport map: 
Aerial View: 

SKYbrary Partners:

Safety knowledge contributed by: